EST,Max TemperatureF,Mean TemperatureF,Min TemperatureF,Max Dew PointF,MeanDew PointF,Min DewpointF,Max Humidity, Mean Humidity, Min Humidity, Max Sea Level PressureIn, Mean Sea Level PressureIn, Min Sea Level PressureIn, Max VisibilityMiles, Mean VisibilityMiles, Min VisibilityMiles, Max Wind SpeedMPH, Mean Wind SpeedMPH, Max Gust SpeedMPH,PrecipitationIn, CloudCover, Events, WindDirDegrees
2013-11-1,57,53,46,55,44,39,88,77,66,29.71,29.53,29.26,10,10,5,17,10,30,0.06,7,Rain,241
2013-11-2,50,47,44,45,42,38,87,83,66,30.10,29.82,29.69,10,8,2,10,5,17,0.10,8,Rain,286
2013-11-3,50,42,36,39,34,31,82,72,54,30.42,30.29,30.09,10,10,10,10,5,,0.00,5,,65
2013-11-4,51,42,33,39,32,25,89,65,39,30.45,30.38,30.32,10,10,10,12,8,18,0.00,0,,132
2013-11-5,57,50,44,48,43,38,80,71,59,30.38,30.31,30.18,10,10,10,12,6,,0.00,5,Rain,181
2013-11-6,57,50,44,52,46,38,88,76,53,30.16,29.98,29.86,10,10,3,20,12,32,0.10,8,Rain,218
2013-11-7,46,42,37,39,31,23,82,65,41,30.22,30.15,30.04,10,10,10,13,6,24,0.01,6,,277
2013-11-8,46,40,33,32,30,26,89,74,46,30.34,30.25,30.19,10,8,5,9,2,,0.00,4,,213
2013-11-9,60,50,39,39,34,28,68,53,46,30.19,29.99,29.88,10,10,10,22,11,34,0.00,3,,219
2013-11-10,48,40,32,35,29,24,85,59,46,30.32,30.20,30.00,10,10,10,17,7,23,0.00,4,,269
2013-11-11,48,38,28,39,31,21,93,78,52,30.36,30.19,30.07,10,7,1,22,9,28,0.15,8,Rain-Snow,313
2013-11-12,36,28,21,22,19,17,82,68,54,30.61,30.54,30.38,10,10,10,15,8,20,0.00,2,,324
2013-11-13,37,29,21,20,18,16,85,64,48,30.59,30.48,30.28,10,10,10,16,7,23,0.00,0,,226
2013-11-14,52,41,30,23,21,19,66,51,30,30.27,30.16,30.06,10,10,10,22,12,31,0.00,0,,213
2013-11-15,50,42,35,30,26,22,70,51,39,30.10,30.07,30.04,10,10,10,13,8,21,0.00,1,,204
2013-11-16,59,48,37,53,44,30,86,78,69,30.10,29.99,29.82,10,9,7,18,8,26,0.01,6,Rain,175
2013-11-17,66,58,50,59,54,38,88,79,62,29.80,29.59,29.34,10,9,2,25,16,41,0.35,7,Rain-Thunderstorm,198
2013-11-18,48,42,37,38,31,24,79,67,57,30.19,29.92,29.67,10,10,10,17,11,29,0.00,6,,275
2013-11-19,42,36,28,25,23,22,75,60,47,30.41,30.34,30.21,10,10,10,15,8,,0.00,3,,22
2013-11-20,45,36,26,31,26,21,81,67,52,30.43,30.34,30.24,10,10,10,13,6,17,0.00,1,,107
2013-11-21,48,45,42,46,41,32,93,86,63,30.30,30.23,30.18,10,5,2,16,4,,0.36,8,Rain,176
2013-11-22,48,39,30,47,41,24,96,87,67,30.41,30.22,30.15,10,5,2,17,5,26,0.05,7,Rain,297
2013-11-23,33,26,18,25,18,6,85,68,47,30.60,30.41,30.34,10,8,0,24,9,31,0.01,4,Snow,310
2013-11-24,26,20,14,14,11,7,78,66,55,30.68,30.59,30.51,10,10,7,9,4,,0.00,4,Snow,263
2013-11-25,32,24,17,22,15,10,74,62,45,30.49,30.29,30.17,10,10,7,18,10,25,0.00,4,Snow,211
2013-11-26,35,32,30,27,24,22,79,72,64,30.17,30.05,29.95,10,10,9,16,7,22,0.00,8,,239
2013-11-27,33,27,19,19,12,9,74,57,40,30.26,30.07,29.96,10,10,10,21,12,30,0.00,3,,324
2013-11-28,30,24,18,20,15,11,84,64,49,30.46,30.34,30.27,10,10,9,13,4,,0.00,7,,202
2013-11-29,37,28,19,22,17,13,78,65,44,30.66,30.60,30.48,10,10,9,6,2,,0.00,3,,93
2013-11-30,48,38,27,27,23,18,76,63,43,30.54,30.32,30.14,10,10,7,12,5,17,0.00,0,,184